Time,TemperatureF,DewpointF,PressureIn,WindDirection,WindDirectionDegrees,WindSpeedMPH,WindSpeedGustMPH,Humidity,HourlyPrecipIn,Conditions,Clouds,dailyrainin,SolarRadiationWatts/m^2,SoftwareType,DateUTC
2013-11-04 00:00:00,39.5,28.3,29.74,SSW,203,0.0,-999.0,69,-99.99,,,0.00,0.0,cwc,2013-11-04 07:00:00,
2013-11-04 00:05:00,39.2,28.0,29.74,SSW,203,0.0,-999.0,69,-99.99,,,0.00,0.0,cwc,2013-11-04 07:05:00,
2013-11-04 00:10:00,38.8,27.3,29.74,SSW,203,0.0,-999.0,68,-99.99,,,0.00,0.0,cwc,2013-11-04 07:10:00,
2013-11-04 00:15:00,38.6,27.4,29.74,SSW,203,0.0,-999.0,69,-99.99,,,0.00,0.0,cwc,2013-11-04 07:15:00,
2013-11-04 00:20:00,38.5,25.5,29.74,SSW,208,2.0,-999.0,64,-99.99,,,0.00,0.0,cwc,2013-11-04 07:20:00,
2013-11-04 00:25:00,40.5,25.4,29.74,SW,215,4.0,-999.0,58,-99.99,,,0.00,0.0,cwc,2013-11-04 07:25:00,
2013-11-04 00:30:00,43.2,27.0,29.74,SW,214,1.0,-999.0,55,-99.99,,,0.00,0.0,cwc,2013-11-04 07:30:00,
2013-11-04 00:35:00,44.3,27.4,29.74,SW,214,3.0,-999.0,53,-99.99,,,0.00,0.0,cwc,2013-11-04 07:35:00,
2013-11-04 00:40:00,44.8,27.9,29.74,SW,214,0.0,-999.0,53,-99.99,,,0.00,0.0,cwc,2013-11-04 07:40:00,
2013-11-04 00:45:00,44.7,28.1,29.75,SW,214,0.0,-999.0,54,-99.99,,,0.00,0.0,cwc,2013-11-04 07:45:00,
2013-11-04 00:50:00,44.1,27.9,29.75,SW,214,1.0,-999.0,55,-99.99,,,0.00,0.0,cwc,2013-11-04 07:50:00,
2013-11-04 00:55:00,42.9,27.4,29.75,SW,214,0.0,-999.0,57,-99.99,,,0.00,0.0,cwc,2013-11-04 07:55:00,
2013-11-04 01:00:00,42.0,26.9,29.75,SW,214,0.0,-999.0,58,-99.99,,,0.00,0.0,cwc,2013-11-04 08:00:00,
2013-11-04 01:05:00,41.4,27.0,29.75,SW,214,1.0,-999.0,60,-99.99,,,0.00,0.0,cwc,2013-11-04 08:05:00,
2013-11-04 01:10:00,40.9,26.9,29.75,SW,214,2.0,-999.0,61,-99.99,,,0.00,0.0,cwc,2013-11-04 08:10:00,
2013-11-04 01:15:00,40.4,26.7,29.75,SW,214,1.0,-999.0,62,-99.99,,,0.00,0.0,cwc,2013-11-04 08:15:00,
2013-11-04 01:20:00,40.1,26.4,29.76,SW,214,0.0,-999.0,62,-99.99,,,0.00,0.0,cwc,2013-11-04 08:20:00,
2013-11-04 01:25:00,40.1,26.8,29.76,SW,214,3.0,-999.0,63,-99.99,,,0.00,0.0,cwc,2013-11-04 08:25:00,
2013-11-04 01:30:00,39.5,26.2,29.76,SW,214,3.0,-999.0,63,-99.99,,,0.00,0.0,cwc,2013-11-04 08:30:00,
2013-11-04 01:40:00,38.8,26.2,29.76,SW,214,0.0,-999.0,65,-99.99,,,0.00,0.0,cwc,2013-11-04 08:40:00,
2013-11-04 01:45:00,38.3,25.7,29.77,SW,214,1.0,-999.0,65,-99.99,,,0.00,0.0,cwc,2013-11-04 08:45:00,
2013-11-04 01:50:00,37.7,25.8,29.77,SW,214,1.0,-999.0,67,-99.99,,,0.00,0.0,cwc,2013-11-04 08:50:00,
2013-11-04 01:55:00,37.3,25.8,29.77,SW,214,0.0,-999.0,68,-99.99,,,0.00,0.0,cwc,2013-11-04 08:55:00,
2013-11-04 02:00:00,37.2,26.0,29.77,SW,214,0.0,-999.0,69,-99.99,,,0.00,0.0,cwc,2013-11-04 09:00:00,
2013-11-04 02:10:00,37.5,26.0,29.77,SW,214,3.0,-999.0,68,-99.99,,,0.00,0.0,cwc,2013-11-04 09:10:00,
2013-11-04 02:15:00,37.1,25.6,29.77,SW,214,3.0,-999.0,68,-99.99,,,0.00,0.0,cwc,2013-11-04 09:15:00,
2013-11-04 02:20:00,36.8,25.6,29.78,SW,214,1.0,-999.0,69,-99.99,,,0.00,0.0,cwc,2013-11-04 09:20:00,
2013-11-04 02:25:00,36.4,25.2,29.78,SW,214,3.0,-999.0,69,-99.99,,,0.00,0.0,cwc,2013-11-04 09:25:00,
2013-11-04 02:30:00,36.1,25.3,29.78,SW,214,0.0,-999.0,70,-99.99,,,0.00,0.0,cwc,2013-11-04 09:30:00,
2013-11-04 02:35:00,35.7,24.9,29.78,SW,214,0.0,-999.0,70,-99.99,,,0.00,0.0,cwc,2013-11-04 09:35:00,
2013-11-04 02:40:00,35.5,24.7,29.78,SW,214,0.0,-999.0,70,-99.99,,,0.00,0.0,cwc,2013-11-04 09:40:00,
2013-11-04 02:45:00,35.2,24.8,29.78,SW,214,0.0,-999.0,71,-99.99,,,0.00,0.0,cwc,2013-11-04 09:45:00,
2013-11-04 02:50:00,34.9,24.8,29.78,SW,214,2.0,-999.0,72,-99.99,,,0.00,0.0,cwc,2013-11-04 09:50:00,
2013-11-04 02:55:00,34.4,24.7,29.78,SW,214,3.0,-999.0,73,-99.99,,,0.00,0.0,cwc,2013-11-04 09:55:00,
2013-11-04 03:00:00,34.2,24.8,29.79,SW,214,2.0,-999.0,74,-99.99,,,0.00,0.0,cwc,2013-11-04 10:00:00,
2013-11-04 03:05:00,34.1,24.7,29.79,SW,214,1.0,-999.0,74,-99.99,,,0.00,0.0,cwc,2013-11-04 10:05:00,
2013-11-04 03:10:00,34.2,24.8,29.79,SW,214,2.0,-999.0,74,-99.99,,,0.00,0.0,cwc,2013-11-04 10:10:00,
2013-11-04 03:15:00,33.9,24.5,29.79,SW,214,2.0,-999.0,74,-99.99,,,0.00,0.0,cwc,2013-11-04 10:15:00,
2013-11-04 03:20:00,33.7,24.3,29.79,SW,214,2.0,-999.0,74,-99.99,,,0.00,0.0,cwc,2013-11-04 10:20:00,
2013-11-04 03:25:00,33.6,24.6,29.79,SW,214,2.0,-999.0,75,-99.99,,,0.00,0.0,cwc,2013-11-04 10:25:00,
2013-11-04 03:30:00,33.5,24.5,29.79,SW,214,3.0,-999.0,75,-99.99,,,0.00,0.0,cwc,2013-11-04 10:30:00,
2013-11-04 03:35:00,33.4,24.4,29.79,SW,214,2.0,-999.0,75,-99.99,,,0.00,0.0,cwc,2013-11-04 10:35:00,
2013-11-04 03:40:00,33.3,24.3,29.79,SW,214,1.0,-999.0,75,-99.99,,,0.00,0.0,cwc,2013-11-04 10:40:00,
2013-11-04 03:45:00,33.0,24.0,29.79,SW,214,0.0,-999.0,75,-99.99,,,0.00,0.0,cwc,2013-11-04 10:45:00,
2013-11-04 03:50:00,32.7,23.7,29.79,SW,214,0.0,-999.0,75,-99.99,,,0.00,0.0,cwc,2013-11-04 10:50:00,
2013-11-04 03:55:00,32.3,23.7,29.79,SW,214,1.0,-999.0,76,-99.99,,,0.00,0.0,cwc,2013-11-04 10:55:00,
2013-11-04 04:00:00,31.9,23.6,29.79,SW,214,3.0,-999.0,77,-99.99,,,0.00,0.0,cwc,2013-11-04 11:00:00,
2013-11-04 04:05:00,31.8,23.9,29.79,SW,214,3.0,-999.0,78,-99.99,,,0.00,0.0,cwc,2013-11-04 11:05:00,
2013-11-04 04:15:00,31.6,23.3,29.79,SW,214,2.0,-999.0,77,-99.99,,,0.00,0.0,cwc,2013-11-04 11:15:00,
2013-11-04 04:20:00,31.4,23.5,29.79,SW,214,2.0,-999.0,78,-99.99,,,0.00,0.0,cwc,2013-11-04 11:20:00,
2013-11-04 04:25:00,31.3,23.4,29.80,SW,214,1.0,-999.0,78,-99.99,,,0.00,0.0,cwc,2013-11-04 11:25:00,
2013-11-04 04:30:00,31.2,23.3,29.80,SW,214,0.0,-999.0,78,-99.99,,,0.00,0.0,cwc,2013-11-04 11:30:00,
2013-11-04 04:40:00,30.8,22.9,29.81,SW,214,0.0,-999.0,78,-99.99,,,0.00,0.0,cwc,2013-11-04 11:40:00,
2013-11-04 04:45:00,30.4,23.2,29.81,SW,214,2.0,-999.0,80,-99.99,,,0.00,0.0,cwc,2013-11-04 11:45:00,
2013-11-04 04:50:00,30.1,22.9,29.81,SW,214,0.0,-999.0,80,-99.99,,,0.00,0.0,cwc,2013-11-04 11:50:00,
2013-11-04 04:55:00,29.9,23.1,29.81,SW,214,2.0,-999.0,81,-99.99,,,0.00,0.0,cwc,2013-11-04 11:55:00,
2013-11-04 05:00:00,29.9,23.1,29.82,SW,214,1.0,-999.0,81,-99.99,,,0.00,0.0,cwc,2013-11-04 12:00:00,
2013-11-04 05:05:00,30.0,23.2,29.81,SW,214,0.0,-999.0,81,-99.99,,,0.00,0.0,cwc,2013-11-04 12:05:00,
2013-11-04 05:10:00,30.0,23.2,29.82,SW,214,2.0,-999.0,81,-99.99,,,0.00,0.0,cwc,2013-11-04 12:10:00,
2013-11-04 05:15:00,29.9,23.1,29.82,SW,214,0.0,-999.0,81,-99.99,,,0.00,0.0,cwc,2013-11-04 12:15:00,
2013-11-04 05:20:00,29.8,22.6,29.82,SW,214,0.0,-999.0,80,-99.99,,,0.00,0.0,cwc,2013-11-04 12:20:00,
2013-11-04 05:25:00,29.6,22.4,29.83,SW,214,0.0,-999.0,80,-99.99,,,0.00,0.0,cwc,2013-11-04 12:25:00,
2013-11-04 05:30:00,29.3,22.5,29.83,SW,214,0.0,-999.0,81,-99.99,,,0.00,0.0,cwc,2013-11-04 12:30:00,
2013-11-04 05:35:00,29.0,22.5,29.83,SW,214,3.0,-999.0,82,-99.99,,,0.00,0.0,cwc,2013-11-04 12:35:00,
2013-11-04 05:40:00,28.9,22.8,29.83,SW,214,1.0,-999.0,83,-99.99,,,0.00,0.0,cwc,2013-11-04 12:40:00,
2013-11-04 05:45:00,29.0,22.5,29.83,SW,214,2.0,-999.0,82,-99.99,,,0.00,0.0,cwc,2013-11-04 12:45:00,
2013-11-04 05:50:00,28.9,22.8,29.83,SW,214,4.0,-999.0,83,-99.99,,,0.00,0.0,cwc,2013-11-04 12:50:00,
2013-11-04 05:55:00,29.3,23.2,29.83,SW,214,2.0,-999.0,83,-99.99,,,0.00,0.0,cwc,2013-11-04 12:55:00,
2013-11-04 06:05:00,29.1,22.6,29.83,SW,214,1.0,-999.0,82,-99.99,,,0.00,0.0,cwc,2013-11-04 13:05:00,
2013-11-04 06:10:00,29.0,22.2,29.84,SW,214,2.0,-999.0,81,-99.99,,,0.00,0.0,cwc,2013-11-04 13:10:00,
2013-11-04 06:15:00,28.6,21.8,29.84,SW,214,0.0,-999.0,81,-99.99,,,0.00,0.0,cwc,2013-11-04 13:15:00,
2013-11-04 06:25:00,28.1,22.3,29.84,SW,214,0.0,-999.0,84,-99.99,,,0.00,0.0,cwc,2013-11-04 13:25:00,
2013-11-04 06:30:00,28.3,22.9,29.85,SW,214,0.0,-999.0,85,-99.99,,,0.00,0.0,cwc,2013-11-04 13:30:00,
2013-11-04 06:35:00,28.4,22.6,29.85,SW,214,0.0,-999.0,84,-99.99,,,0.00,5.0,cwc,2013-11-04 13:35:00,
2013-11-04 06:40:00,28.5,22.7,29.85,SW,214,0.0,-999.0,84,-99.99,,,0.00,7.0,cwc,2013-11-04 13:40:00,
2013-11-04 06:45:00,28.6,22.8,29.86,SW,214,1.0,-999.0,84,-99.99,,,0.00,9.0,cwc,2013-11-04 13:45:00,
2013-11-04 06:50:00,28.8,23.0,29.85,SW,214,0.0,-999.0,84,-99.99,,,0.00,14.0,cwc,2013-11-04 13:50:00,
2013-11-04 06:55:00,28.9,22.8,29.86,SW,214,2.0,-999.0,83,-99.99,,,0.00,18.0,cwc,2013-11-04 13:55:00,
2013-11-04 07:00:00,29.2,23.4,29.86,SW,214,0.0,-999.0,84,-99.99,,,0.00,28.0,cwc,2013-11-04 14:00:00,
2013-11-04 07:05:00,29.4,23.6,29.87,SW,214,2.0,-999.0,84,-99.99,,,0.00,53.0,cwc,2013-11-04 14:05:00,
2013-11-04 07:10:00,29.5,23.4,29.87,SW,214,1.0,-999.0,83,-99.99,,,0.00,63.0,cwc,2013-11-04 14:10:00,
2013-11-04 07:15:00,29.7,23.6,29.87,SW,214,3.0,-999.0,83,-99.99,,,0.00,86.0,cwc,2013-11-04 14:15:00,
2013-11-04 07:20:00,30.0,23.9,29.87,SW,214,0.0,-999.0,83,-99.99,,,0.00,98.0,cwc,2013-11-04 14:20:00,
2013-11-04 07:25:00,30.5,24.4,29.88,SW,214,0.0,-999.0,83,-99.99,,,0.00,116.0,cwc,2013-11-04 14:25:00,
2013-11-04 07:30:00,31.1,25.0,29.88,SW,214,0.0,-999.0,83,-99.99,,,0.00,134.0,cwc,2013-11-04 14:30:00,
2013-11-04 07:40:00,32.5,24.9,29.88,SW,214,1.0,-999.0,79,-99.99,,,0.00,165.0,cwc,2013-11-04 14:40:00,
2013-11-04 07:45:00,33.1,25.2,29.88,SW,214,2.0,-999.0,78,-99.99,,,0.00,185.0,cwc,2013-11-04 14:45:00,
2013-11-04 07:50:00,33.7,25.1,29.89,SW,214,0.0,-999.0,76,-99.99,,,0.00,206.0,cwc,2013-11-04 14:50:00,
2013-11-04 07:55:00,34.4,25.0,29.89,SW,214,1.0,-999.0,74,-99.99,,,0.00,223.0,cwc,2013-11-04 14:55:00,
2013-11-04 08:00:00,35.0,24.9,29.89,SW,216,2.0,-999.0,72,-99.99,,,0.00,243.0,cwc,2013-11-04 15:00:00,
2013-11-04 08:05:00,35.4,25.3,29.89,SW,216,1.0,-999.0,72,-99.99,,,0.00,262.0,cwc,2013-11-04 15:05:00,
2013-11-04 08:10:00,36.0,25.2,29.89,SW,217,1.0,-999.0,70,-99.99,,,0.00,279.0,cwc,2013-11-04 15:10:00,
2013-11-04 08:15:00,36.7,25.5,29.89,SW,219,1.0,-999.0,69,-99.99,,,0.00,295.0,cwc,2013-11-04 15:15:00,
2013-11-04 08:20:00,37.4,24.8,29.89,SW,220,0.0,-999.0,65,-99.99,,,0.00,311.0,cwc,2013-11-04 15:20:00,
2013-11-04 08:25:00,38.3,25.0,29.90,SW,220,3.0,-999.0,63,-99.99,,,0.00,325.0,cwc,2013-11-04 15:25:00,
2013-11-04 08:30:00,39.2,25.2,29.89,NW,317,4.0,-999.0,61,-99.99,,,0.00,339.0,cwc,2013-11-04 15:30:00,
2013-11-04 08:35:00,39.6,25.2,29.89,NW,319,4.0,-999.0,60,-99.99,,,0.00,355.0,cwc,2013-11-04 15:35:00,
2013-11-04 08:40:00,39.7,25.3,29.89,NW,321,4.0,-999.0,60,-99.99,,,0.00,366.0,cwc,2013-11-04 15:40:00,
2013-11-04 08:45:00,39.9,25.1,29.89,NW,323,6.0,-999.0,59,-99.99,,,0.00,383.0,cwc,2013-11-04 15:45:00,
2013-11-04 08:50:00,40.1,25.3,29.89,NW,322,4.0,-999.0,59,-99.99,,,0.00,397.0,cwc,2013-11-04 15:50:00,
2013-11-04 08:55:00,40.4,24.6,29.89,NW,322,3.0,-999.0,56,-99.99,,,0.00,411.0,cwc,2013-11-04 15:55:00,
2013-11-04 09:00:00,40.7,25.2,29.88,NW,322,0.0,-999.0,57,-99.99,,,0.00,422.0,cwc,2013-11-04 16:00:00,
2013-11-04 09:05:00,41.3,25.5,29.88,NW,322,1.0,-999.0,56,-99.99,,,0.00,436.0,cwc,2013-11-04 16:05:00,
2013-11-04 09:10:00,41.9,25.7,29.88,NW,322,3.0,-999.0,55,-99.99,,,0.00,448.0,cwc,2013-11-04 16:10:00,
2013-11-04 09:15:00,42.5,26.3,29.88,NW,322,2.0,-999.0,55,-99.99,,,0.00,461.0,cwc,2013-11-04 16:15:00,
2013-11-04 09:20:00,43.0,26.8,29.88,NW,323,2.0,-999.0,55,-99.99,,,0.00,473.0,cwc,2013-11-04 16:20:00,
2013-11-04 09:25:00,43.9,27.0,29.88,NW,322,0.0,-999.0,53,-99.99,,,0.00,485.0,cwc,2013-11-04 16:25:00,
2013-11-04 09:30:00,44.5,26.9,29.88,NW,322,1.0,-999.0,51,-99.99,,,0.00,499.0,cwc,2013-11-04 16:30:00,
2013-11-04 09:35:00,45.1,27.8,29.87,NW,323,1.0,-999.0,52,-99.99,,,0.00,506.0,cwc,2013-11-04 16:35:00,
2013-11-04 09:40:00,45.8,27.8,29.87,NW,323,1.0,-999.0,50,-99.99,,,0.00,519.0,cwc,2013-11-04 16:40:00,
2013-11-04 09:45:00,46.4,27.7,29.87,NW,322,0.0,-999.0,48,-99.99,,,0.00,529.0,cwc,2013-11-04 16:45:00,
2013-11-04 09:55:00,47.7,27.5,29.87,NW,323,1.0,-999.0,44,-99.99,,,0.00,548.0,cwc,2013-11-04 16:55:00,
2013-11-04 10:00:00,48.0,27.8,29.86,NW,323,0.0,-999.0,44,-99.99,,,0.00,559.0,cwc,2013-11-04 17:00:00,
2013-11-04 10:05:00,48.7,28.5,29.86,NW,322,2.0,-999.0,44,-99.99,,,0.00,568.0,cwc,2013-11-04 17:05:00,
2013-11-04 10:10:00,49.4,29.2,29.86,NW,323,4.0,-999.0,44,-99.99,,,0.00,575.0,cwc,2013-11-04 17:10:00,
2013-11-04 10:15:00,49.7,29.2,29.86,NW,323,1.0,-999.0,43,-99.99,,,0.00,582.0,cwc,2013-11-04 17:15:00,
2013-11-04 10:20:00,50.2,29.0,29.86,NW,322,0.0,-999.0,41,-99.99,,,0.00,591.0,cwc,2013-11-04 17:20:00,
2013-11-04 10:25:00,50.8,29.6,29.86,NW,322,3.0,-999.0,41,-99.99,,,0.00,598.0,cwc,2013-11-04 17:25:00,
2013-11-04 10:30:00,51.1,29.5,29.86,NW,324,5.0,-999.0,40,-99.99,,,0.00,603.0,cwc,2013-11-04 17:30:00,
2013-11-04 10:35:00,51.3,30.1,29.85,NNW,327,0.0,-999.0,41,-99.99,,,0.00,610.0,cwc,2013-11-04 17:35:00,
2013-11-04 10:40:00,52.0,31.1,29.85,NNW,327,2.0,-999.0,42,-99.99,,,0.00,617.0,cwc,2013-11-04 17:40:00,
2013-11-04 10:45:00,52.7,30.4,29.85,NW,326,0.0,-999.0,38,-99.99,,,0.00,621.0,cwc,2013-11-04 17:45:00,
2013-11-04 10:50:00,53.5,31.2,29.85,NNW,327,0.0,-999.0,38,-99.99,,,0.00,628.0,cwc,2013-11-04 17:50:00,
2013-11-04 10:55:00,54.2,30.8,29.84,SSW,195,5.0,-999.0,35,-99.99,,,0.00,633.0,cwc,2013-11-04 17:55:00,
2013-11-04 11:00:00,54.7,30.9,29.84,SSW,202,6.0,-999.0,34,-99.99,,,0.00,638.0,cwc,2013-11-04 18:00:00,
2013-11-04 11:05:00,54.9,31.9,29.84,South,179,6.0,-999.0,36,-99.99,,,0.00,643.0,cwc,2013-11-04 18:05:00,
2013-11-04 11:10:00,55.0,31.2,29.84,South,186,5.0,-999.0,34,-99.99,,,0.00,643.0,cwc,2013-11-04 18:10:00,
2013-11-04 11:15:00,55.1,31.7,29.83,South,190,4.0,-999.0,35,-99.99,,,0.00,645.0,cwc,2013-11-04 18:15:00,
2013-11-04 11:20:00,55.2,32.2,29.83,SSE,168,5.0,-999.0,36,-99.99,,,0.00,647.0,cwc,2013-11-04 18:20:00,
2013-11-04 11:25:00,55.7,31.9,29.83,SSW,207,9.0,-999.0,34,-99.99,,,0.00,649.0,cwc,2013-11-04 18:25:00,
2013-11-04 11:30:00,55.8,32.0,29.83,SSW,208,3.0,-999.0,34,-99.99,,,0.00,652.0,cwc,2013-11-04 18:30:00,
2013-11-04 11:35:00,56.2,32.8,29.83,SSW,207,2.0,-999.0,35,-99.99,,,0.00,656.0,cwc,2013-11-04 18:35:00,
2013-11-04 11:40:00,56.5,32.7,29.82,SSE,164,5.0,-999.0,34,-99.99,,,0.00,656.0,cwc,2013-11-04 18:40:00,
2013-11-04 11:45:00,56.9,32.4,29.82,SSW,207,9.0,-999.0,32,-99.99,,,0.00,656.0,cwc,2013-11-04 18:45:00,
2013-11-04 11:50:00,57.1,32.6,29.81,SSE,151,3.0,-999.0,32,-99.99,,,0.00,656.0,cwc,2013-11-04 18:50:00,
2013-11-04 11:55:00,57.5,32.7,29.81,SSW,192,9.0,-999.0,31,-99.99,,,0.00,656.0,cwc,2013-11-04 18:55:00,
2013-11-04 12:00:00,58.2,33.4,29.81,SSW,210,8.0,-999.0,31,-99.99,,,0.00,654.0,cwc,2013-11-04 19:00:00,
2013-11-04 12:05:00,58.6,33.4,29.81,SSW,213,20.0,-999.0,30,-99.99,,,0.00,652.0,cwc,2013-11-04 19:05:00,
2013-11-04 12:10:00,58.4,33.2,29.80,SSW,203,13.0,-999.0,30,-99.99,,,0.00,652.0,cwc,2013-11-04 19:10:00,
2013-11-04 12:15:00,58.2,32.3,29.79,South,183,12.0,-999.0,28,-99.99,,,0.00,649.0,cwc,2013-11-04 19:15:00,
2013-11-04 12:20:00,58.4,32.8,29.79,SSE,155,5.0,-999.0,29,-99.99,,,0.00,645.0,cwc,2013-11-04 19:20:00,
2013-11-04 12:25:00,59.0,33.4,29.79,South,178,5.0,-999.0,29,-99.99,,,0.00,643.0,cwc,2013-11-04 19:25:00,
2013-11-04 12:30:00,59.0,33.1,29.79,SSW,192,14.0,-999.0,28,-99.99,,,0.00,640.0,cwc,2013-11-04 19:30:00,
2013-11-04 12:35:00,58.6,32.7,29.78,South,190,16.0,-999.0,28,-99.99,,,0.00,636.0,cwc,2013-11-04 19:35:00,
2013-11-04 12:40:00,58.3,32.4,29.79,SSW,196,20.0,-999.0,28,-99.99,,,0.00,633.0,cwc,2013-11-04 19:40:00,
2013-11-04 12:45:00,58.4,32.5,29.78,SW,225,17.0,-999.0,28,-99.99,,,0.00,626.0,cwc,2013-11-04 19:45:00,
2013-11-04 12:50:00,58.6,32.7,29.78,SSW,196,19.0,-999.0,28,-99.99,,,0.00,622.0,cwc,2013-11-04 19:50:00,
2013-11-04 12:55:00,58.7,33.1,29.78,SSE,165,11.0,-999.0,29,-99.99,,,0.00,617.0,cwc,2013-11-04 19:55:00,
2013-11-04 13:00:00,58.9,33.3,29.78,SSW,210,15.0,-999.0,29,-99.99,,,0.00,608.0,cwc,2013-11-04 20:00:00,
2013-11-04 13:05:00,58.6,33.0,29.77,South,186,14.0,-999.0,29,-99.99,,,0.00,599.0,cwc,2013-11-04 20:05:00,
2013-11-04 13:15:00,58.6,33.0,29.77,SSE,163,15.0,-999.0,29,-99.99,,,0.00,589.0,cwc,2013-11-04 20:15:00,
2013-11-04 13:20:00,58.9,33.3,29.76,SSE,164,7.0,-999.0,29,-99.99,,,0.00,580.0,cwc,2013-11-04 20:20:00,
2013-11-04 13:25:00,59.0,33.4,29.76,South,169,7.0,-999.0,29,-99.99,,,0.00,573.0,cwc,2013-11-04 20:25:00,
2013-11-04 13:30:00,59.2,33.3,29.76,SSW,195,10.0,-999.0,28,-99.99,,,0.00,566.0,cwc,2013-11-04 20:30:00,
2013-11-04 13:40:00,59.0,33.4,29.76,SSE,166,8.0,-999.0,29,-99.99,,,0.00,547.0,cwc,2013-11-04 20:40:00,
2013-11-04 13:45:00,59.2,33.6,29.76,SSE,160,16.0,-999.0,29,-99.99,,,0.00,536.0,cwc,2013-11-04 20:45:00,
2013-11-04 13:50:00,59.5,33.9,29.76,SSW,199,14.0,-999.0,29,-99.99,,,0.00,527.0,cwc,2013-11-04 20:50:00,
2013-11-04 13:55:00,59.5,33.9,29.75,SW,215,9.0,-999.0,29,-99.99,,,0.00,513.0,cwc,2013-11-04 20:55:00,
2013-11-04 14:00:00,59.2,34.0,29.75,SW,223,14.0,-999.0,30,-99.99,,,0.00,501.0,cwc,2013-11-04 21:00:00,
2013-11-04 14:10:00,59.3,34.1,29.75,SSW,194,14.0,-999.0,30,-99.99,,,0.00,473.0,cwc,2013-11-04 21:10:00,
2013-11-04 14:15:00,59.6,34.4,29.75,SSE,160,6.0,-999.0,30,-99.99,,,0.00,461.0,cwc,2013-11-04 21:15:00,
2013-11-04 14:20:00,59.9,34.7,29.74,SSW,198,19.0,-999.0,30,-99.99,,,0.00,454.0,cwc,2013-11-04 21:20:00,
2013-11-04 14:25:00,59.9,34.7,29.74,SSW,194,11.0,-999.0,30,-99.99,,,0.00,434.0,cwc,2013-11-04 21:25:00,
2013-11-04 14:30:00,59.8,34.6,29.74,South,188,12.0,-999.0,30,-99.99,,,0.00,406.0,cwc,2013-11-04 21:30:00,
2013-11-04 14:35:00,59.7,34.9,29.74,SSW,208,13.0,-999.0,31,-99.99,,,0.00,418.0,cwc,2013-11-04 21:35:00,
2013-11-04 14:40:00,59.6,34.8,29.74,SSW,213,13.0,-999.0,31,-99.99,,,0.00,404.0,cwc,2013-11-04 21:40:00,
2013-11-04 14:45:00,59.4,34.6,29.73,SSW,202,8.0,-999.0,31,-99.99,,,0.00,385.0,cwc,2013-11-04 21:45:00,
2013-11-04 14:50:00,59.8,35.0,29.74,SW,215,13.0,-999.0,31,-99.99,,,0.00,381.0,cwc,2013-11-04 21:50:00,
2013-11-04 14:55:00,60.0,35.2,29.74,South,173,14.0,-999.0,31,-99.99,,,0.00,369.0,cwc,2013-11-04 21:55:00,
2013-11-04 15:00:00,60.0,35.2,29.74,SSW,201,13.0,-999.0,31,-99.99,,,0.00,352.0,cwc,2013-11-04 22:00:00,
2013-11-04 15:05:00,59.8,35.0,29.73,South,191,11.0,-999.0,31,-99.99,,,0.00,338.0,cwc,2013-11-04 22:05:00,
2013-11-04 15:10:00,59.7,34.9,29.73,SSW,199,11.0,-999.0,31,-99.99,,,0.00,325.0,cwc,2013-11-04 22:10:00,
2013-11-04 15:15:00,59.7,35.2,29.73,SSW,196,7.0,-999.0,32,-99.99,,,0.00,306.0,cwc,2013-11-04 22:15:00,
2013-11-04 15:25:00,59.9,35.4,29.73,South,176,8.0,-999.0,32,-99.99,,,0.00,274.0,cwc,2013-11-04 22:25:00,
2013-11-04 15:30:00,60.0,35.9,29.73,SSW,194,4.0,-999.0,33,-99.99,,,0.00,253.0,cwc,2013-11-04 22:30:00,
2013-11-04 15:35:00,59.9,35.8,29.73,SSW,210,7.0,-999.0,33,-99.99,,,0.00,230.0,cwc,2013-11-04 22:35:00,
2013-11-04 15:40:00,59.9,35.8,29.73,SW,218,9.0,-999.0,33,-99.99,,,0.00,211.0,cwc,2013-11-04 22:40:00,
2013-11-04 15:45:00,59.8,35.7,29.73,SW,225,5.0,-999.0,33,-99.99,,,0.00,192.0,cwc,2013-11-04 22:45:00,
2013-11-04 15:55:00,59.3,35.5,29.73,SW,225,7.0,-999.0,34,-99.99,,,0.00,69.0,cwc,2013-11-04 22:55:00,
2013-11-04 16:00:00,58.7,35.3,29.73,South,184,3.0,-999.0,35,-99.99,,,0.00,21.0,cwc,2013-11-04 23:00:00,
2013-11-04 16:05:00,58.2,34.8,29.73,SSW,201,9.0,-999.0,35,-99.99,,,0.00,21.0,cwc,2013-11-04 23:05:00,
2013-11-04 16:10:00,58.0,34.6,29.74,SW,221,9.0,-999.0,35,-99.99,,,0.00,21.0,cwc,2013-11-04 23:10:00,
2013-11-04 16:15:00,57.8,34.8,29.73,SSW,204,7.0,-999.0,36,-99.99,,,0.00,19.0,cwc,2013-11-04 23:15:00,
2013-11-04 16:25:00,57.6,34.6,29.74,SSW,202,11.0,-999.0,36,-99.99,,,0.00,19.0,cwc,2013-11-04 23:25:00,
2013-11-04 16:30:00,57.5,34.5,29.74,SSW,203,5.0,-999.0,36,-99.99,,,0.00,18.0,cwc,2013-11-04 23:30:00,
2013-11-04 16:35:00,57.5,34.1,29.74,South,182,8.0,-999.0,35,-99.99,,,0.00,21.0,cwc,2013-11-04 23:35:00,
2013-11-04 16:40:00,57.5,34.1,29.74,SW,232,6.0,-999.0,35,-99.99,,,0.00,14.0,cwc,2013-11-04 23:40:00,
2013-11-04 16:45:00,57.3,33.9,29.74,West,264,7.0,-999.0,35,-99.99,,,0.00,9.0,cwc,2013-11-04 23:45:00,
2013-11-04 16:55:00,57.0,34.0,29.74,SSW,192,4.0,-999.0,36,-99.99,,,0.00,5.0,cwc,2013-11-04 23:55:00,
2013-11-04 17:00:00,56.7,34.0,29.74,SSW,192,3.0,-999.0,37,-99.99,,,0.00,0.0,cwc,2013-11-05 00:00:00,
2013-11-04 17:05:00,56.4,33.7,29.74,SSW,192,3.0,-999.0,37,-99.99,,,0.00,0.0,cwc,2013-11-05 00:05:00,
2013-11-04 17:10:00,56.2,33.9,29.74,SSW,192,0.0,-999.0,38,-99.99,,,0.00,0.0,cwc,2013-11-05 00:10:00,
2013-11-04 17:15:00,55.8,33.5,29.73,SSW,192,1.0,-999.0,38,-99.99,,,0.00,0.0,cwc,2013-11-05 00:15:00,
2013-11-04 17:20:00,55.5,33.2,29.73,SSW,192,2.0,-999.0,38,-99.99,,,0.00,0.0,cwc,2013-11-05 00:20:00,
2013-11-04 17:25:00,55.1,33.1,29.72,SSW,192,2.0,-999.0,39,-99.99,,,0.00,0.0,cwc,2013-11-05 00:25:00,
2013-11-04 17:30:00,54.7,33.1,29.72,SSW,192,2.0,-999.0,40,-99.99,,,0.00,0.0,cwc,2013-11-05 00:30:00,
2013-11-04 17:35:00,54.2,33.0,29.72,SSW,192,1.0,-999.0,41,-99.99,,,0.00,0.0,cwc,2013-11-05 00:35:00,
2013-11-04 17:40:00,53.6,32.4,29.71,SSW,192,1.0,-999.0,41,-99.99,,,0.00,0.0,cwc,2013-11-05 00:40:00,
2013-11-04 17:45:00,53.1,32.6,29.72,SSW,192,2.0,-999.0,43,-99.99,,,0.00,0.0,cwc,2013-11-05 00:45:00,
2013-11-04 17:55:00,50.7,31.3,29.72,SSW,192,2.0,-999.0,46,-99.99,,,0.00,0.0,cwc,2013-11-05 00:55:00,
2013-11-04 18:00:00,49.7,31.0,29.72,SSW,192,2.0,-999.0,48,-99.99,,,0.00,0.0,cwc,2013-11-05 01:00:00,
2013-11-04 18:05:00,48.7,30.7,29.72,SSW,192,3.0,-999.0,50,-99.99,,,0.00,0.0,cwc,2013-11-05 01:05:00,
2013-11-04 18:10:00,47.9,30.3,29.72,SSW,192,3.0,-999.0,51,-99.99,,,0.00,0.0,cwc,2013-11-05 01:10:00,
2013-11-04 18:15:00,47.4,30.1,29.72,SSW,192,3.0,-999.0,52,-99.99,,,0.00,0.0,cwc,2013-11-05 01:15:00,
2013-11-04 18:20:00,47.4,30.1,29.72,SSW,192,1.0,-999.0,52,-99.99,,,0.00,0.0,cwc,2013-11-05 01:20:00,
2013-11-04 18:25:00,47.6,30.3,29.72,SSW,192,0.0,-999.0,52,-99.99,,,0.00,0.0,cwc,2013-11-05 01:25:00,
2013-11-04 18:30:00,47.7,30.4,29.73,SSW,192,2.0,-999.0,52,-99.99,,,0.00,0.0,cwc,2013-11-05 01:30:00,
2013-11-04 18:35:00,47.3,30.0,29.72,SSW,192,0.0,-999.0,52,-99.99,,,0.00,0.0,cwc,2013-11-05 01:35:00,
2013-11-04 18:40:00,47.2,30.6,29.72,SSW,192,1.0,-999.0,54,-99.99,,,0.00,0.0,cwc,2013-11-05 01:40:00,
2013-11-04 18:45:00,46.9,30.3,29.72,SSW,192,4.0,-999.0,54,-99.99,,,0.00,0.0,cwc,2013-11-05 01:45:00,
2013-11-04 18:50:00,46.7,30.1,29.73,SSW,192,2.0,-999.0,54,-99.99,,,0.00,0.0,cwc,2013-11-05 01:50:00,
2013-11-04 18:55:00,47.2,31.0,29.75,SSW,192,3.0,-999.0,55,-99.99,,,0.00,0.0,cwc,2013-11-05 01:55:00,
2013-11-04 19:05:00,50.5,37.2,29.79,WSW,242,3.0,-999.0,63,-99.99,,,0.01,0.0,cwc,2013-11-05 02:05:00,
2013-11-04 19:10:00,49.6,38.1,29.78,WSW,238,9.0,-999.0,68,-99.99,,,0.03,0.0,cwc,2013-11-05 02:10:00,
2013-11-04 19:15:00,48.4,38.3,29.78,WSW,257,6.0,-999.0,72,-99.99,,,0.03,0.0,cwc,2013-11-05 02:15:00,
2013-11-04 19:20:00,47.6,38.2,29.79,SW,217,10.0,-999.0,74,-99.99,,,0.05,0.0,cwc,2013-11-05 02:20:00,
2013-11-04 19:25:00,46.9,38.6,29.81,SW,233,10.0,-999.0,77,-99.99,,,0.07,0.0,cwc,2013-11-05 02:25:00,
2013-11-04 19:30:00,46.3,38.7,29.82,West,263,10.0,-999.0,79,-99.99,,,0.10,0.0,cwc,2013-11-05 02:30:00,
2013-11-04 19:35:00,45.8,39.0,29.81,South,173,2.0,-999.0,81,-99.99,,,0.14,0.0,cwc,2013-11-05 02:35:00,
2013-11-04 19:40:00,45.4,38.9,29.81,South,174,2.0,-999.0,82,-99.99,,,0.17,0.0,cwc,2013-11-05 02:40:00,
2013-11-04 19:45:00,45.0,39.6,29.82,South,175,5.0,-999.0,85,-99.99,,,0.19,0.0,cwc,2013-11-05 02:45:00,
2013-11-04 19:50:00,44.8,39.8,29.80,South,175,3.0,-999.0,86,-99.99,,,0.25,0.0,cwc,2013-11-05 02:50:00,
2013-11-04 20:05:00,43.8,39.1,29.79,ENE,61,1.0,-999.0,87,-99.99,,,0.28,0.0,cwc,2013-11-05 03:05:00,
2013-11-04 20:10:00,43.6,38.9,29.78,ENE,61,3.0,-999.0,87,-99.99,,,0.28,0.0,cwc,2013-11-05 03:10:00,
2013-11-04 20:15:00,43.5,39.2,29.77,ENE,60,2.0,-999.0,88,-99.99,,,0.28,0.0,cwc,2013-11-05 03:15:00,
2013-11-04 20:25:00,43.5,39.5,29.78,ENE,60,0.0,-999.0,89,-99.99,,,0.29,0.0,cwc,2013-11-05 03:25:00,
2013-11-04 20:30:00,43.4,39.8,29.78,ENE,62,0.0,-999.0,90,-99.99,,,0.29,0.0,cwc,2013-11-05 03:30:00,
2013-11-04 20:35:00,43.3,39.3,29.77,ENE,61,0.0,-999.0,89,-99.99,,,0.30,0.0,cwc,2013-11-05 03:35:00,
2013-11-04 20:40:00,43.0,39.0,29.77,SE,128,3.0,-999.0,89,-99.99,,,0.31,0.0,cwc,2013-11-05 03:40:00,
2013-11-04 20:45:00,42.7,38.4,29.77,SE,129,0.0,-999.0,88,-99.99,,,0.31,0.0,cwc,2013-11-05 03:45:00,
2013-11-04 20:50:00,42.5,38.2,29.76,SSE,155,3.0,-999.0,88,-99.99,,,0.31,0.0,cwc,2013-11-05 03:50:00,
2013-11-04 20:55:00,42.4,38.1,29.77,SSE,162,4.0,-999.0,88,-99.99,,,0.31,0.0,cwc,2013-11-05 03:55:00,
2013-11-04 21:05:00,42.6,37.9,29.77,South,182,1.0,-999.0,87,-99.99,,,0.32,0.0,cwc,2013-11-05 04:05:00,
2013-11-04 21:15:00,42.5,38.2,29.78,South,182,0.0,-999.0,88,-99.99,,,0.32,0.0,cwc,2013-11-05 04:15:00,
2013-11-04 21:25:00,42.5,38.2,29.78,South,182,0.0,-999.0,88,-99.99,,,0.32,0.0,cwc,2013-11-05 04:25:00,
2013-11-04 21:30:00,42.4,38.1,29.79,South,182,3.0,-999.0,88,-99.99,,,0.33,0.0,cwc,2013-11-05 04:30:00,
2013-11-04 21:35:00,42.3,38.0,29.79,South,182,3.0,-999.0,88,-99.99,,,0.33,0.0,cwc,2013-11-05 04:35:00,
2013-11-04 21:40:00,42.3,38.3,29.79,South,182,0.0,-999.0,89,-99.99,,,0.33,0.0,cwc,2013-11-05 04:40:00,
2013-11-04 21:45:00,42.3,38.3,29.79,SW,215,5.0,-999.0,89,-99.99,,,0.33,0.0,cwc,2013-11-05 04:45:00,
2013-11-04 21:50:00,42.3,38.3,29.79,SW,217,0.0,-999.0,89,-99.99,,,0.33,0.0,cwc,2013-11-05 04:50:00,
2013-11-04 21:55:00,42.3,38.3,29.78,SW,218,4.0,-999.0,89,-99.99,,,0.33,0.0,cwc,2013-11-05 04:55:00,
2013-11-04 22:00:00,42.3,38.3,29.79,SW,221,0.0,-999.0,89,-99.99,,,0.33,0.0,cwc,2013-11-05 05:00:00,
2013-11-04 22:05:00,42.3,38.7,29.80,SW,221,2.0,-999.0,90,-99.99,,,0.33,0.0,cwc,2013-11-05 05:05:00,
2013-11-04 22:10:00,42.3,38.7,29.79,SW,221,0.0,-999.0,90,-99.99,,,0.33,0.0,cwc,2013-11-05 05:10:00,
2013-11-04 22:15:00,42.4,38.8,29.79,SW,221,0.0,-999.0,90,-99.99,,,0.34,0.0,cwc,2013-11-05 05:15:00,
2013-11-04 22:20:00,42.5,38.9,29.79,SW,221,0.0,-999.0,90,-99.99,,,0.34,0.0,cwc,2013-11-05 05:20:00,
2013-11-04 22:25:00,42.6,39.4,29.79,SW,221,0.0,-999.0,91,-99.99,,,0.35,0.0,cwc,2013-11-05 05:25:00,
2013-11-04 22:30:00,42.6,39.4,29.79,SW,221,1.0,-999.0,91,-99.99,,,0.35,0.0,cwc,2013-11-05 05:30:00,
2013-11-04 22:35:00,42.7,39.5,29.79,SW,221,0.0,-999.0,91,-99.99,,,0.36,0.0,cwc,2013-11-05 05:35:00,
2013-11-04 22:40:00,42.7,39.5,29.78,SW,221,0.0,-999.0,91,-99.99,,,0.37,0.0,cwc,2013-11-05 05:40:00,
2013-11-04 22:45:00,42.7,39.5,29.78,SW,221,0.0,-999.0,91,-99.99,,,0.38,0.0,cwc,2013-11-05 05:45:00,
2013-11-04 22:50:00,42.7,39.5,29.78,SW,221,0.0,-999.0,91,-99.99,,,0.39,0.0,cwc,2013-11-05 05:50:00,
2013-11-04 23:00:00,42.7,39.5,29.78,SW,221,0.0,-999.0,91,-99.99,,,0.42,0.0,cwc,2013-11-05 06:00:00,
2013-11-04 23:05:00,42.6,39.4,29.77,SW,221,0.0,-999.0,91,-99.99,,,0.43,0.0,cwc,2013-11-05 06:05:00,
2013-11-04 23:10:00,42.6,39.4,29.77,SW,221,0.0,-999.0,91,-99.99,,,0.43,0.0,cwc,2013-11-05 06:10:00,
2013-11-04 23:15:00,42.6,39.4,29.77,SW,221,0.0,-999.0,91,-99.99,,,0.43,0.0,cwc,2013-11-05 06:15:00,
2013-11-04 23:20:00,42.5,39.3,29.77,SW,221,0.0,-999.0,91,-99.99,,,0.43,0.0,cwc,2013-11-05 06:20:00,
2013-11-04 23:25:00,42.5,39.3,29.78,SW,221,3.0,-999.0,91,-99.99,,,0.43,0.0,cwc,2013-11-05 06:25:00,
2013-11-04 23:30:00,42.4,39.2,29.77,SW,223,3.0,-999.0,91,-99.99,,,0.43,0.0,cwc,2013-11-05 06:30:00,
2013-11-04 23:35:00,42.1,38.5,29.77,SW,219,5.0,-999.0,90,-99.99,,,0.43,0.0,cwc,2013-11-05 06:35:00,
2013-11-04 23:40:00,41.7,38.1,29.77,SW,236,3.0,-999.0,90,-99.99,,,0.43,0.0,cwc,2013-11-05 06:40:00,
2013-11-04 23:45:00,41.5,37.9,29.77,WSW,237,3.0,-999.0,90,-99.99,,,0.43,0.0,cwc,2013-11-05 06:45:00,
2013-11-04 23:50:00,41.2,37.6,29.76,WSW,244,2.0,-999.0,90,-99.99,,,0.43,0.0,cwc,2013-11-05 06:50:00,
2013-11-04 23:55:00,41.1,37.5,29.77,WSW,243,2.0,-999.0,90,-99.99,,,0.43,0.0,cwc,2013-11-05 06:55:00,